Star Herdla — LAVD4 — position and weather

sailwx.info

Track history (hours):
 
Tides and Currents Weather Stations Pressure Air Temp Water Temp Dewpoint Dewpoint Depression Visibility Wind Speed Wind Dir Waves Ship Positions

Star Herdla

Last reported at 2014-Nov-16 17:33 UTC. Time now 2014-Nov-22 00:25 UTC.
Position N 29°28' W 094°51'.

Type: Ship (hazmat cat A). MMSI: 258954000.

Date/timePositionNaut miles runAvg speedWind from/ knotsBaromVisibWave heightAir tempDewpointWater temp
2014-Nov-16 17:33N 29°28' W 094°51'1212.0
2014-Nov-16 16:33N 29°38' W 094°58'9 9.4
2014-Nov-16 15:33N 29°46' W 095°05'6 6.2
2014-Nov-16 14:33N 29°45' W 095°12'4 4.4
2014-Nov-16 13:33N 29°44' W 095°17'1 0.1
2014-Nov-15 23:05N 29°44' W 095°17'0 0.0
2014-Nov-15 22:32N 29°44' W 095°17'0 0.0
2014-Nov-15 21:29N 29°44' W 095°17'0 0.0
2014-Nov-15 20:32N 29°44' W 095°17'0 0.0
2014-Nov-15 19:32N 29°44' W 095°17'0 0.0
2014-Nov-15 18:32N 29°44' W 095°17'0 0.0
2014-Nov-15 17:32N 29°44' W 095°17'0 0.0
2014-Nov-15 16:29N 29°44' W 095°17'0 0.0
2014-Nov-15 15:26N 29°44' W 095°17'0 0.0
2014-Nov-15 14:26N 29°44' W 095°17'0 0.0
2014-Nov-15 13:32N 29°44' W 095°17'0 0.0
2014-Nov-14 23:14N 29°44' W 095°17'0 0.0
2014-Nov-14 22:32N 29°44' W 095°17'0 0.0
2014-Nov-14 21:26N 29°44' W 095°17'0 0.0
2014-Nov-14 20:32N 29°44' W 095°17'0 0.0
2014-Nov-14 19:32N 29°44' W 095°17'0 0.0
2014-Nov-14 18:32N 29°44' W 095°17'0 0.0
2014-Nov-14 17:32N 29°44' W 095°17'0 0.0
2014-Nov-14 16:08N 29°44' W 095°17'0 0.0
2014-Nov-14 15:32N 29°44' W 095°17'0 0.0
2014-Nov-14 14:32N 29°44' W 095°17'0 0.0
2014-Nov-14 03:32N 29°44' W 095°17'0 0.0
2014-Nov-13 23:14N 29°44' W 095°17'0 0.0
2014-Nov-13 21:14N 29°44' W 095°17'0 0.0
2014-Nov-13 20:29N 29°44' W 095°17'0 0.0
2014-Nov-13 19:32N 29°44' W 095°17'0 0.0
2014-Nov-13 18:32N 29°44' W 095°17'0 0.0
2014-Nov-13 17:32N 29°44' W 095°17'0 0.0
2014-Nov-13 16:32N 29°44' W 095°17'0 0.0
2014-Nov-13 15:32N 29°44' W 095°17'0 0.0
2014-Nov-13 14:26N 29°44' W 095°17'0 0.0
2014-Nov-13 13:32N 29°44' W 095°17'0 0.0
2014-Nov-13 12:26N 29°44' W 095°17'0 0.0
2014-Nov-13 10:17N 29°44' W 095°17'0 0.0
2014-Nov-13 09:11N 29°44' W 095°17'0 0.0
2014-Nov-13 08:29N 29°44' W 095°17'0 0.0
2014-Nov-13 02:14N 29°44' W 095°17'0 0.0
2014-Nov-12 23:14N 29°44' W 095°17'0 0.0
2014-Nov-12 22:23N 29°44' W 095°17'0 0.0
2014-Nov-12 21:32N 29°44' W 095°17'0 0.0
2014-Nov-12 20:26N 29°44' W 095°17'0 0.0
2014-Nov-12 19:23N 29°44' W 095°17'0 0.0
2014-Nov-12 18:32N 29°44' W 095°17'0 0.0
2014-Nov-12 17:32N 29°44' W 095°17'0 0.0
2014-Nov-12 16:32N 29°44' W 095°17'0 0.0
2014-Nov-12 15:29N 29°44' W 095°17'0 0.0
2014-Nov-12 14:26N 29°44' W 095°17'0 0.0
2014-Nov-12 13:32N 29°44' W 095°17'0 0.0
2014-Nov-12 12:11N 29°44' W 095°17'0 0.0
2014-Nov-12 11:26N 29°44' W 095°17'0 0.0
2014-Nov-12 05:20N 29°44' W 095°17'0 0.0
2014-Nov-11 23:20N 29°44' W 095°17'0 0.0
2014-Nov-11 22:32N 29°44' W 095°17'0 0.0
2014-Nov-11 21:32N 29°44' W 095°17'0 0.0
2014-Nov-11 19:05N 29°44' W 095°17'0 0.2
2014-Nov-11 18:34N 29°44' W 095°17'1 0.9
2014-Nov-11 17:26N 29°44' W 095°16'4 4.7
2014-Nov-11 16:34N 29°45' W 095°11'6 5.7
2014-Nov-11 15:33N 29°46' W 095°05'7 7.4
2014-Nov-11 14:33N 29°41' W 094°59'1111.5
2014-Nov-11 13:34N 29°31' W 094°53'  
Track history (hours):
 
Tides and Currents Weather Stations Pressure Air Temp Water Temp Dewpoint Dewpoint Depression Visibility Wind Speed Wind Dir Waves Ship Positions

Star Herdla

Last reported at 2014-Nov-16 17:33 UTC. Time now 2014-Nov-22 00:25 UTC.
Position N 29°28' W 094°51'.

Type: Ship (hazmat cat A). MMSI: 258954000.

Date/timePositionNaut miles runAvg speedWind from/ knotsBaromVisibWave heightAir tempDewpointWater temp
2014-Nov-16 17:33N 29°28' W 094°51'1212.0
2014-Nov-16 16:33N 29°38' W 094°58'9 9.4
2014-Nov-16 15:33N 29°46' W 095°05'6 6.2
2014-Nov-16 14:33N 29°45' W 095°12'4 4.4
2014-Nov-16 13:33N 29°44' W 095°17'1 0.1
2014-Nov-15 23:05N 29°44' W 095°17'0 0.0
2014-Nov-15 22:32N 29°44' W 095°17'0 0.0
2014-Nov-15 21:29N 29°44' W 095°17'0 0.0
2014-Nov-15 20:32N 29°44' W 095°17'0 0.0
2014-Nov-15 19:32N 29°44' W 095°17'0 0.0
2014-Nov-15 18:32N 29°44' W 095°17'0 0.0
2014-Nov-15 17:32N 29°44' W 095°17'0 0.0
2014-Nov-15 16:29N 29°44' W 095°17'0 0.0
2014-Nov-15 15:26N 29°44' W 095°17'0 0.0
2014-Nov-15 14:26N 29°44' W 095°17'0 0.0
2014-Nov-15 13:32N 29°44' W 095°17'0 0.0
2014-Nov-14 23:14N 29°44' W 095°17'0 0.0
2014-Nov-14 22:32N 29°44' W 095°17'0 0.0
2014-Nov-14 21:26N 29°44' W 095°17'0 0.0
2014-Nov-14 20:32N 29°44' W 095°17'0 0.0
2014-Nov-14 19:32N 29°44' W 095°17'0 0.0
2014-Nov-14 18:32N 29°44' W 095°17'0 0.0
2014-Nov-14 17:32N 29°44' W 095°17'0 0.0
2014-Nov-14 16:08N 29°44' W 095°17'0 0.0
2014-Nov-14 15:32N 29°44' W 095°17'0 0.0
2014-Nov-14 14:32N 29°44' W 095°17'0 0.0
2014-Nov-14 03:32N 29°44' W 095°17'0 0.0
2014-Nov-13 23:14N 29°44' W 095°17'0 0.0
2014-Nov-13 21:14N 29°44' W 095°17'0 0.0
2014-Nov-13 20:29N 29°44' W 095°17'0 0.0
2014-Nov-13 19:32N 29°44' W 095°17'0 0.0
2014-Nov-13 18:32N 29°44' W 095°17'0 0.0
2014-Nov-13 17:32N 29°44' W 095°17'0 0.0
2014-Nov-13 16:32N 29°44' W 095°17'0 0.0
2014-Nov-13 15:32N 29°44' W 095°17'0 0.0
2014-Nov-13 14:26N 29°44' W 095°17'0 0.0
2014-Nov-13 13:32N 29°44' W 095°17'0 0.0
2014-Nov-13 12:26N 29°44' W 095°17'0 0.0
2014-Nov-13 10:17N 29°44' W 095°17'0 0.0
2014-Nov-13 09:11N 29°44' W 095°17'0 0.0
2014-Nov-13 08:29N 29°44' W 095°17'0 0.0
2014-Nov-13 02:14N 29°44' W 095°17'0 0.0
2014-Nov-12 23:14N 29°44' W 095°17'0 0.0
2014-Nov-12 22:23N 29°44' W 095°17'0 0.0
2014-Nov-12 21:32N 29°44' W 095°17'0 0.0
2014-Nov-12 20:26N 29°44' W 095°17'0 0.0
2014-Nov-12 19:23N 29°44' W 095°17'0 0.0
2014-Nov-12 18:32N 29°44' W 095°17'0 0.0
2014-Nov-12 17:32N 29°44' W 095°17'0 0.0
2014-Nov-12 16:32N 29°44' W 095°17'0 0.0
2014-Nov-12 15:29N 29°44' W 095°17'0 0.0
2014-Nov-12 14:26N 29°44' W 095°17'0 0.0
2014-Nov-12 13:32N 29°44' W 095°17'0 0.0
2014-Nov-12 12:11N 29°44' W 095°17'0 0.0
2014-Nov-12 11:26N 29°44' W 095°17'0 0.0
2014-Nov-12 05:20N 29°44' W 095°17'0 0.0
2014-Nov-11 23:20N 29°44' W 095°17'0 0.0
2014-Nov-11 22:32N 29°44' W 095°17'0 0.0
2014-Nov-11 21:32N 29°44' W 095°17'0 0.0
2014-Nov-11 19:05N 29°44' W 095°17'0 0.2
2014-Nov-11 18:34N 29°44' W 095°17'1 0.9
2014-Nov-11 17:26N 29°44' W 095°16'4 4.7
2014-Nov-11 16:34N 29°45' W 095°11'6 5.7
2014-Nov-11 15:33N 29°46' W 095°05'7 7.4
2014-Nov-11 14:33N 29°41' W 094°59'1111.5
2014-Nov-11 13:34N 29°31' W 094°53'  

Dump ship's entire track history